Time;durP1;ratioP1;P1;durP2;ratioP2;P2;SDS_P1;SDS_P2;PMS_P1;PMS_P2;Temp;Humidity;BMP_temperature;BMP_pressure;BME280_temperature;BME280_humidity;BME280_pressure;Samples;Min_cycle;Max_cycle;Signal;HPM_P1;HPM_P2
2022/09/14 00:01:34;;;;;;;2.88;2.58;;;16.30;99.90;;;;;;5092318;28;20025;-79
2022/09/14 00:04:05;;;;;;;5.95;2.50;;;16.30;99.90;;;;;;5093221;28;20459;-78
2022/09/14 00:06:32;;;;;;;3.13;2.55;;;16.30;99.90;;;;;;5091961;28;20035;-79
2022/09/14 00:09:02;;;;;;;2.97;2.33;;;16.30;99.90;;;;;;5093396;28;20404;-77
2022/09/14 00:11:29;;;;;;;3.63;2.42;;;16.30;99.90;;;;;;5093185;28;20020;-77
2022/09/14 00:13:57;;;;;;;3.40;1.95;;;16.30;99.90;;;;;;5091881;28;20031;-78
2022/09/14 00:16:28;;;;;;;3.22;2.42;;;16.30;99.90;;;;;;5092055;28;20873;-79
2022/09/14 00:18:59;;;;;;;2.40;1.77;;;16.30;99.90;;;;;;5091355;28;20079;-77
2022/09/14 00:21:25;;;;;;;5.43;2.38;;;16.30;99.90;;;;;;5092183;28;20371;-77
2022/09/14 00:23:51;;;;;;;9.27;2.38;;;16.30;99.90;;;;;;5092147;28;20020;-76
2022/09/14 00:26:20;;;;;;;3.50;1.90;;;16.10;99.90;;;;;;5092283;28;20020;-77
2022/09/14 00:28:49;;;;;;;2.20;2.00;;;16.10;99.90;;;;;;5090824;28;20165;-77
2022/09/14 00:31:15;;;;;;;2.42;1.98;;;16.10;99.90;;;;;;5090810;28;20111;-78
2022/09/14 00:33:42;;;;;;;4.18;1.95;;;16.10;99.90;;;;;;5092176;28;20027;-77
2022/09/14 00:36:11;;;;;;;4.38;1.92;;;16.10;99.90;;;;;;5092085;28;20026;-77
2022/09/14 00:38:37;;;;;;;4.68;2.05;;;16.20;99.90;;;;;;5091880;28;20032;-77
2022/09/14 00:41:05;;;;;;;2.40;2.20;;;16.10;99.90;;;;;;5091861;28;20099;-76
2022/09/14 00:43:31;;;;;;;1.80;1.67;;;16.20;99.90;;;;;;5092021;28;20455;-78
2022/09/14 00:46:00;;;;;;;2.42;2.20;;;16.10;99.90;;;;;;5091765;28;20491;-78
2022/09/14 00:48:26;;;;;;;3.03;1.90;;;16.20;99.90;;;;;;5091749;28;20031;-79
2022/09/14 00:50:53;;;;;;;3.72;2.20;;;16.10;99.90;;;;;;5090621;28;20040;-77
2022/09/14 00:53:19;;;;;;;2.58;2.30;;;16.10;99.90;;;;;;5090483;28;20025;-76
2022/09/14 00:55:44;;;;;;;9.45;2.63;;;16.10;99.90;;;;;;5090611;28;20479;-76
2022/09/14 00:58:10;;;;;;;21.40;2.92;;;16.10;99.90;;;;;;5091635;28;20378;-78
2022/09/14 01:00:36;;;;;;;3.13;2.70;;;16.00;99.90;;;;;;5090388;28;20209;-76
2022/09/14 01:03:01;;;;;;;2.47;2.28;;;16.10;99.90;;;;;;5090434;28;20031;-79
2022/09/14 01:05:55;;;;;;;4.50;2.35;;;16.10;99.90;;;;;;5091573;28;20462;-77
2022/09/14 01:08:40;;;;;;;2.30;2.03;;;16.10;99.90;;;;;;5090243;28;20028;-77
2022/09/14 01:11:30;;;;;;;4.38;2.03;;;16.10;99.90;;;;;;5079365;28;20036;-78
2022/09/14 01:14:37;;;;;;;2.58;1.92;;;16.10;99.90;;;;;;5091770;28;20059;-77
2022/09/14 01:17:06;;;;;;;5.38;2.58;;;16.10;99.90;;;;;;5089880;28;20372;-77
2022/09/14 01:19:41;;;;;;;2.40;2.20;;;16.10;99.90;;;;;;5050202;28;1132237;-78
2022/09/14 01:22:17;;;;;;;4.10;1.95;;;16.00;99.90;;;;;;5092349;28;20081;-76
2022/09/14 01:24:51;;;;;;;2.65;2.45;;;16.10;99.90;;;;;;5092233;28;20024;-76
2022/09/14 01:27:24;;;;;;;9.57;2.30;;;16.00;99.90;;;;;;5090736;28;20028;-77
2022/09/14 01:29:56;;;;;;;3.80;2.22;;;16.00;99.90;;;;;;5092273;28;20318;-78
2022/09/14 01:32:31;;;;;;;2.60;2.28;;;16.00;99.90;;;;;;5092189;28;20020;-79
2022/09/14 01:35:23;;;;;;;3.33;2.25;;;15.90;99.90;;;;;;5090743;28;20027;-78
2022/09/14 01:38:03;;;;;;;2.95;2.75;;;15.90;99.90;;;;;;5091995;28;20020;-79
2022/09/14 01:40:38;;;;;;;4.65;2.47;;;15.90;99.90;;;;;;5091016;28;20036;-77
2022/09/14 01:43:12;;;;;;;3.25;2.80;;;15.90;99.90;;;;;;5092161;28;20486;-76
2022/09/14 01:45:43;;;;;;;5.25;2.90;;;15.90;99.90;;;;;;5092062;28;20050;-76
2022/09/14 01:48:11;;;;;;;3.88;2.65;;;15.90;99.90;;;;;;5091713;28;20491;-77
2022/09/14 01:50:44;;;;;;;3.63;2.97;;;15.80;99.90;;;;;;5090743;28;20432;-77
2022/09/14 01:53:28;;;;;;;3.45;2.80;;;15.80;99.90;;;;;;5091922;28;20027;-79
2022/09/14 01:56:00;;;;;;;3.25;2.45;;;15.80;99.90;;;;;;5091089;28;20386;-77
2022/09/14 01:58:39;;;;;;;5.93;4.43;;;15.80;99.90;;;;;;5091719;28;20055;-78
2022/09/14 02:01:08;;;;;;;6.93;5.22;;;15.80;99.90;;;;;;5091861;28;20106;-78
2022/09/14 02:03:45;;;;;;;8.65;3.60;;;15.80;99.90;;;;;;5090689;28;20463;-78
2022/09/14 02:06:19;;;;;;;3.58;2.85;;;15.80;99.90;;;;;;5091991;28;20099;-78
2022/09/14 02:08:46;;;;;;;4.25;2.75;;;15.70;99.90;;;;;;5090517;28;20536;-76
2022/09/14 02:11:11;;;;;;;4.05;3.03;;;15.70;99.90;;;;;;5090436;28;20028;-78
2022/09/14 02:13:37;;;;;;;4.47;2.90;;;15.70;99.90;;;;;;5091868;28;20379;-77
2022/09/14 02:16:04;;;;;;;9.30;3.08;;;15.70;99.90;;;;;;5091980;28;20055;-76
2022/09/14 02:18:30;;;;;;;5.72;2.92;;;15.70;99.90;;;;;;5091332;28;20093;-76
2022/09/14 02:21:15;;;;;;;6.03;2.88;;;15.70;99.90;;;;;;5093973;28;20043;-79
2022/09/14 02:23:42;;;;;;;3.33;2.55;;;15.60;99.90;;;;;;5095353;28;20082;-80
2022/09/14 02:26:08;;;;;;;4.13;2.42;;;15.60;99.90;;;;;;5093844;28;20387;-77
2022/09/14 02:28:34;;;;;;;3.10;2.50;;;15.60;99.90;;;;;;5095176;28;20073;-76
2022/09/14 02:31:38;;;;;;;2.78;2.47;;;15.60;99.90;;;;;;5095098;28;20043;-77
2022/09/14 02:34:16;;;;;;;7.82;2.90;;;15.50;99.90;;;;;;5094743;28;20135;-78
2022/09/14 02:37:03;;;;;;;3.92;2.25;;;15.50;99.90;;;;;;5094883;28;20046;-77
2022/09/14 02:39:35;;;;;;;3.35;2.80;;;15.50;99.90;;;;;;5094788;28;20054;-78
2022/09/14 02:42:20;;;;;;;4.30;2.78;;;15.60;99.90;;;;;;5093629;28;20110;-76
2022/09/14 02:45:16;;;;;;;5.15;2.80;;;15.60;99.90;;;;;;5094978;28;20603;-79
2022/09/14 02:47:59;;;;;;;;;;;15.60;99.90;;;;;;5093943;28;20028;-77
2022/09/14 02:50:34;;;;;;;3.33;2.20;;;15.60;99.90;;;;;;5094912;28;19915;-76
2022/09/14 02:53:15;;;;;;;4.03;3.17;;;15.60;99.90;;;;;;5093550;28;20021;-77
2022/09/14 02:55:47;;;;;;;5.45;2.95;;;15.60;99.90;;;;;;5094822;28;20111;-78
2022/09/14 02:58:14;;;;;;;3.03;2.72;;;15.60;99.90;;;;;;5093201;28;20111;-76
2022/09/14 03:00:45;;;;;;;5.03;2.47;;;15.60;99.90;;;;;;5094635;28;20487;-78
2022/09/14 03:03:13;;;;;;;4.43;2.75;;;15.60;99.90;;;;;;5093304;28;20027;-79
2022/09/14 03:05:40;;;;;;;4.10;2.45;;;15.50;99.90;;;;;;5093271;28;20159;-75
2022/09/14 03:08:06;;;;;;;2.33;2.13;;;15.50;99.90;;;;;;5094433;28;20020;-78
2022/09/14 03:10:33;;;;;;;3.13;2.78;;;15.60;99.90;;;;;;5094416;28;20082;-77
2022/09/14 03:12:59;;;;;;;3.83;2.50;;;15.50;99.90;;;;;;5094461;28;20039;-76
2022/09/14 03:15:26;;;;;;;2.95;2.63;;;15.50;99.90;;;;;;5094351;28;20024;-79
2022/09/14 03:17:52;;;;;;;2.58;2.38;;;15.50;99.90;;;;;;5094254;28;20023;-78
2022/09/14 03:20:21;;;;;;;2.38;2.17;;;15.60;99.90;;;;;;5094065;28;20442;-75
2022/09/14 03:22:46;;;;;;;4.50;2.25;;;15.60;99.90;;;;;;5094305;28;20433;-76
2022/09/14 03:25:13;;;;;;;3.00;2.75;;;15.60;99.90;;;;;;5094269;28;20595;-77
2022/09/14 03:27:39;;;;;;;2.85;2.08;;;15.60;99.90;;;;;;5092917;28;20020;-78
2022/09/14 03:30:05;;;;;;;2.33;2.13;;;15.60;99.90;;;;;;5093670;28;20028;-77
2022/09/14 03:32:31;;;;;;;4.93;2.20;;;15.60;99.90;;;;;;5092315;28;20111;-77
2022/09/14 03:34:57;;;;;;;3.55;2.72;;;15.60;99.90;;;;;;5093913;28;20103;-77
2022/09/14 03:37:24;;;;;;;6.25;2.47;;;15.50;99.90;;;;;;5092627;28;20021;-77
2022/09/14 03:39:49;;;;;;;3.65;2.25;;;15.50;99.90;;;;;;5093751;28;20429;-78
2022/09/14 03:42:15;;;;;;;5.55;2.33;;;15.60;99.90;;;;;;5093779;28;20024;-78
2022/09/14 03:44:40;;;;;;;6.00;2.45;;;15.60;99.90;;;;;;5092480;28;20032;-77
2022/09/14 03:47:07;;;;;;;3.65;2.47;;;15.60;99.90;;;;;;5093768;28;20008;-77
2022/09/14 03:49:33;;;;;;;3.15;2.70;;;15.60;99.90;;;;;;5093481;28;20024;-78
2022/09/14 03:51:59;;;;;;;4.22;2.20;;;15.60;99.90;;;;;;5093614;28;20023;-76
2022/09/14 03:54:26;;;;;;;3.58;2.00;;;15.60;99.90;;;;;;5093641;28;20066;-76
2022/09/14 03:56:52;;;;;;;4.18;2.63;;;15.70;99.90;;;;;;5092235;28;20027;-78
2022/09/14 03:59:19;;;;;;;2.60;2.40;;;15.70;99.90;;;;;;5093187;28;20032;-77
2022/09/14 04:01:45;;;;;;;4.30;2.38;;;15.70;99.90;;;;;;5093310;28;20032;-77
2022/09/14 04:04:10;;;;;;;2.63;2.38;;;15.70;99.90;;;;;;5093320;28;20076;-77
2022/09/14 04:06:36;;;;;;;3.00;2.20;;;15.70;99.90;;;;;;5093361;28;20023;-77
2022/09/14 04:09:03;;;;;;;5.57;2.85;;;15.70;99.90;;;;;;5091958;28;20126;-79
2022/09/14 04:11:30;;;;;;;5.00;2.63;;;15.70;99.90;;;;;;5091963;28;20016;-77
2022/09/14 04:14:00;;;;;;;3.70;3.35;;;15.60;99.90;;;;;;5093225;28;20028;-78
2022/09/14 04:16:27;;;;;;;3.28;2.63;;;15.70;99.90;;;;;;5093171;28;20070;-78
2022/09/14 04:18:53;;;;;;;2.75;2.47;;;15.70;99.90;;;;;;5092654;28;20052;-77
2022/09/14 04:21:21;;;;;;;4.97;2.58;;;15.70;99.90;;;;;;5093151;28;20525;-77
2022/09/14 04:23:47;;;;;;;4.50;2.92;;;15.70;99.90;;;;;;5092979;28;20095;-77
2022/09/14 04:26:17;;;;;;;3.00;2.70;;;15.70;99.90;;;;;;5093115;28;20046;-77
2022/09/14 04:28:43;;;;;;;4.85;3.20;;;15.70;99.90;;;;;;5092790;28;20028;-78
2022/09/14 04:31:10;;;;;;;6.65;3.05;;;15.70;99.90;;;;;;5092920;28;20016;-79
2022/09/14 04:33:37;;;;;;;9.40;4.13;;;15.70;99.90;;;;;;5092854;28;20024;-78
2022/09/14 04:36:08;;;;;;;3.50;2.97;;;15.70;99.90;;;;;;5092650;28;20031;-77
2022/09/14 04:38:35;;;;;;;3.67;2.65;;;15.70;99.90;;;;;;5092680;28;20421;-77
2022/09/14 04:41:05;;;;;;;2.95;2.67;;;16.40;99.90;;;;;;5091150;28;20028;-77
2022/09/14 04:43:30;;;;;;;5.22;4.03;;;16.70;99.90;;;;;;5092581;28;20028;-77
2022/09/14 04:46:09;;;;;;;3.55;3.17;;;17.10;99.90;;;;;;5092415;28;20023;-76
2022/09/14 04:48:35;;;;;;;4.22;3.05;;;17.50;99.90;;;;;;5097600;28;20080;-77
2022/09/14 04:51:09;;;;;;;2.97;2.40;;;17.70;99.90;;;;;;5093761;28;20487;-76
2022/09/14 04:53:37;;;;;;;3.78;2.90;;;17.80;99.90;;;;;;5092696;28;20031;-78
2022/09/14 04:56:05;;;;;;;4.07;2.30;;;17.90;99.90;;;;;;5092453;28;20080;-79
2022/09/14 04:58:32;;;;;;;5.43;2.33;;;18.00;99.90;;;;;;5090961;28;20020;-77
2022/09/14 05:01:07;;;;;;;5.13;2.30;;;18.20;99.90;;;;;;5090987;28;20032;-78
2022/09/14 05:03:33;;;;;;;3.17;2.72;;;18.20;99.90;;;;;;5091297;28;20024;-78
2022/09/14 05:06:03;;;;;;;3.30;2.50;;;18.10;99.90;;;;;;5092618;28;20020;-77
2022/09/14 05:08:29;;;;;;;2.63;2.35;;;17.90;99.90;;;;;;5091673;28;20364;-78
2022/09/14 05:10:57;;;;;;;4.43;2.92;;;17.70;99.90;;;;;;5091023;28;20467;-78
2022/09/14 05:13:23;;;;;;;3.13;2.05;;;17.60;99.90;;;;;;5092212;28;20115;-78
2022/09/14 05:15:49;;;;;;;2.40;2.13;;;17.60;99.90;;;;;;5092377;28;20077;-77
2022/09/14 05:18:15;;;;;;;2.65;1.90;;;17.50;99.90;;;;;;5088717;28;20044;-76
2022/09/14 05:20:41;;;;;;;3.78;2.47;;;17.40;99.90;;;;;;5092051;28;20033;-77
2022/09/14 05:23:07;;;;;;;4.32;2.47;;;17.40;99.90;;;;;;5091019;28;20074;-78
2022/09/14 05:25:32;;;;;;;3.60;2.80;;;17.30;99.90;;;;;;5091977;28;20030;-77
2022/09/14 05:27:58;;;;;;;5.53;2.50;;;17.30;99.90;;;;;;5092018;28;20034;-78
2022/09/14 05:30:24;;;;;;;4.07;2.90;;;17.30;99.90;;;;;;5092176;28;20017;-81
2022/09/14 05:32:50;;;;;;;2.78;2.53;;;17.40;99.90;;;;;;5091917;28;20093;-76
2022/09/14 05:35:15;;;;;;;7.45;3.03;;;17.50;99.90;;;;;;5091909;28;20402;-78
2022/09/14 05:37:41;;;;;;;3.50;3.08;;;17.50;99.90;;;;;;5090620;28;20117;-78
2022/09/14 05:40:07;;;;;;;4.47;3.08;;;17.50;99.90;;;;;;5091633;28;20088;-79
2022/09/14 05:42:33;;;;;;;14.30;3.33;;;17.50;99.90;;;;;;5092151;28;20020;-77
2022/09/14 05:44:59;;;;;;;5.53;4.28;;;17.60;99.90;;;;;;5091750;28;20020;-77
2022/09/14 05:47:28;;;;;;;7.65;3.70;;;17.60;99.90;;;;;;5092068;28;20998;-78
2022/09/14 05:49:53;;;;;;;6.63;3.45;;;17.60;99.90;;;;;;5091733;28;20064;-77
2022/09/14 05:52:19;;;;;;;10.85;3.35;;;17.60;99.90;;;;;;5091705;28;20124;-77
2022/09/14 05:54:45;;;;;;;6.22;2.83;;;17.50;99.90;;;;;;5093759;28;20027;-76
2022/09/14 05:57:10;;;;;;;4.78;2.20;;;17.50;99.90;;;;;;5095411;28;20024;-78
2022/09/14 05:59:36;;;;;;;4.90;3.65;;;17.50;99.90;;;;;;5094290;28;20085;-73
2022/09/14 06:02:03;;;;;;;3.58;2.65;;;17.50;99.90;;;;;;5095413;28;20048;-75
2022/09/14 06:04:29;;;;;;;7.43;3.83;;;17.70;99.90;;;;;;5095528;28;20091;-78
2022/09/14 06:06:55;;;;;;;5.80;2.92;;;17.70;99.90;;;;;;5095559;28;20111;-78
2022/09/14 06:09:20;;;;;;;6.45;3.13;;;17.70;99.90;;;;;;5095601;28;20823;-80
2022/09/14 06:11:46;;;;;;;5.28;3.55;;;17.70;99.90;;;;;;5095580;28;20027;-79
2022/09/14 06:14:12;;;;;;;3.15;2.67;;;17.60;99.90;;;;;;5095710;28;20032;-79
2022/09/14 06:16:37;;;;;;;5.22;4.20;;;17.60;99.90;;;;;;5095721;28;20058;-79
2022/09/14 06:19:03;;;;;;;13.95;11.38;;;17.50;99.90;;;;;;5095511;28;20094;-78
2022/09/14 06:21:32;;;;;;;9.93;8.60;;;17.40;99.90;;;;;;5093970;28;20016;-79
2022/09/14 06:23:58;;;;;;;10.50;7.35;;;17.40;99.90;;;;;;5095551;28;20024;-78
2022/09/14 06:26:24;;;;;;;8.10;6.40;;;17.50;99.90;;;;;;5095328;28;20020;-78
2022/09/14 06:28:51;;;;;;;5.75;5.07;;;17.50;99.90;;;;;;5095354;28;20549;-77
2022/09/14 06:31:21;;;;;;;4.65;3.60;;;17.50;99.90;;;;;;5094257;28;20024;-78
2022/09/14 06:33:48;;;;;;;3.70;3.10;;;17.60;99.90;;;;;;5095262;28;20368;-78
2022/09/14 06:36:18;;;;;;;9.65;5.30;;;17.70;99.90;;;;;;5093914;28;20025;-78
2022/09/14 06:38:45;;;;;;;4.15;3.75;;;17.60;99.90;;;;;;5094495;28;20031;-80
2022/09/14 06:41:13;;;;;;;6.38;3.80;;;17.60;99.90;;;;;;5093483;28;20032;-77
2022/09/14 06:43:40;;;;;;;7.85;4.35;;;17.70;99.90;;;;;;5094794;28;20582;-78
2022/09/14 06:46:27;;;;;;;7.90;4.32;;;17.70;99.90;;;;;;5093458;28;20166;-77
2022/09/14 06:49:19;;;;;;;3.92;3.55;;;17.90;99.90;;;;;;5093094;28;20020;-78
2022/09/14 06:51:46;;;;;;;3.55;3.25;;;18.00;99.90;;;;;;5093373;28;20471;-78
2022/09/14 06:54:14;;;;;;;3.42;3.08;;;18.10;99.90;;;;;;5093488;28;20024;-78
2022/09/14 06:56:41;;;;;;;5.05;3.97;;;18.30;99.90;;;;;;5093348;28;20031;-79
2022/09/14 06:59:08;;;;;;;5.60;3.30;;;18.50;99.90;;;;;;5094304;28;20027;-80
2022/09/14 07:01:34;;;;;;;3.45;2.88;;;18.70;99.90;;;;;;5093412;28;20193;-80
2022/09/14 07:04:00;;;;;;;5.35;3.05;;;18.80;99.90;;;;;;5093140;28;20028;-79
2022/09/14 07:06:29;;;;;;;3.50;2.28;;;18.90;99.90;;;;;;5093004;28;20023;-75
2022/09/14 07:08:55;;;;;;;3.13;2.53;;;18.90;99.90;;;;;;5094259;28;20438;-76
2022/09/14 07:11:24;;;;;;;2.95;2.65;;;19.00;99.90;;;;;;5092945;28;20536;-74
2022/09/14 07:13:51;;;;;;;8.93;3.33;;;19.10;99.90;;;;;;5093485;28;20032;-79
2022/09/14 07:16:17;;;;;;;7.18;3.42;;;19.10;99.90;;;;;;5093022;28;20043;-79
2022/09/14 07:18:43;;;;;;;6.90;2.70;;;19.20;99.90;;;;;;5093932;28;20525;-79
2022/09/14 07:21:13;;;;;;;3.75;2.70;;;19.30;99.90;;;;;;5090072;28;20137;-77
2022/09/14 07:23:41;;;;;;;4.80;2.60;;;19.50;99.90;;;;;;5073918;28;20024;-77
2022/09/14 07:26:10;;;;;;;3.20;2.88;;;19.50;99.90;;;;;;5072676;28;20038;-76
2022/09/14 07:28:37;;;;;;;3.35;3.05;;;19.60;99.90;;;;;;5073979;28;20083;-78
2022/09/14 07:31:04;;;;;;;3.42;2.50;;;19.70;99.90;;;;;;5072478;28;20025;-76
2022/09/14 07:33:31;;;;;;;3.75;3.45;;;19.80;99.90;;;;;;5073881;28;20554;-78
2022/09/14 07:36:07;;;;;;;5.90;2.20;;;19.90;99.90;;;;;;5073879;28;20032;-78
2022/09/14 07:38:33;;;;;;;3.35;2.35;;;20.10;99.90;;;;;;5073562;28;20463;-77
2022/09/14 07:40:59;;;;;;;2.97;2.30;;;20.20;99.90;;;;;;5073637;28;20436;-78
2022/09/14 07:43:25;;;;;;;2.40;2.13;;;20.30;99.90;;;;;;5072495;28;20050;-78
2022/09/14 07:45:51;;;;;;;4.43;2.63;;;20.40;99.90;;;;;;5073612;28;20078;-77
2022/09/14 07:48:16;;;;;;;3.92;2.72;;;20.60;99.90;;;;;;5073517;28;20021;-76
2022/09/14 07:50:42;;;;;;;5.35;2.42;;;20.80;99.90;;;;;;5073466;28;20468;-77
2022/09/14 07:53:08;;;;;;;2.63;2.42;;;21.00;99.90;;;;;;5073587;28;20039;-79
2022/09/14 07:55:37;;;;;;;2.10;1.85;;;21.20;99.90;;;;;;5073545;28;20024;-77
2022/09/14 07:58:02;;;;;;;2.83;2.10;;;21.40;99.90;;;;;;5071951;28;20502;-77
2022/09/14 08:00:28;;;;;;;2.15;1.95;;;21.50;99.90;;;;;;5073064;28;20036;-79
2022/09/14 08:02:54;;;;;;;4.00;1.70;;;21.60;99.90;;;;;;5073350;28;20024;-78
2022/09/14 08:05:21;;;;;;;3.45;1.80;;;21.80;99.90;;;;;;5073432;28;20451;-78
2022/09/14 08:07:47;;;;;;;2.30;1.83;;;22.00;99.90;;;;;;5073325;28;20099;-77
2022/09/14 08:10:12;;;;;;;3.53;1.83;;;22.20;99.90;;;;;;5073221;28;20619;-78
2022/09/14 08:12:38;;;;;;;2.50;1.67;;;22.50;99.90;;;;;;5073163;28;20016;-79
2022/09/14 08:15:04;;;;;;;4.55;1.90;;;22.80;99.80;;;;;;5073222;28;20357;-79
2022/09/14 08:17:30;;;;;;;3.05;1.90;;;23.00;98.60;;;;;;5071641;28;20021;-79
2022/09/14 08:19:55;;;;;;;2.05;1.88;;;23.10;97.30;;;;;;5072659;28;20117;-79
2022/09/14 08:22:21;;;;;;;3.85;1.70;;;23.30;96.90;;;;;;5073199;28;20024;-79
2022/09/14 08:24:47;;;;;;;1.95;1.67;;;23.40;96.60;;;;;;5072736;28;20094;-81
2022/09/14 08:27:12;;;;;;;2.25;1.73;;;23.50;96.60;;;;;;5072884;28;20723;-79
2022/09/14 08:29:38;;;;;;;2.88;1.52;;;23.50;95.80;;;;;;5072116;28;20060;-79
2022/09/14 08:32:04;;;;;;;3.13;1.60;;;23.60;95.40;;;;;;5072739;28;20418;-79
2022/09/14 08:34:30;;;;;;;1.80;1.50;;;23.70;95.10;;;;;;5073031;28;20127;-79
2022/09/14 08:36:56;;;;;;;2.17;1.70;;;23.80;94.90;;;;;;5094453;28;20541;-79
2022/09/14 08:39:21;;;;;;;1.58;1.30;;;24.00;94.60;;;;;;5096994;28;20093;-78
2022/09/14 08:41:57;;;;;;;1.95;1.65;;;24.00;93.10;;;;;;5092888;28;20060;-77
2022/09/14 08:44:41;;;;;;;6.97;1.50;;;24.00;93.00;;;;;;5093396;28;20091;-78
2022/09/14 08:47:14;;;;;;;2.20;1.40;;;24.10;94.20;;;;;;5091606;28;20562;-75
2022/09/14 08:50:22;;;;;;;1.70;1.50;;;24.10;94.60;;;;;;5092602;28;20028;-76
2022/09/14 08:52:53;;;;;;;1.48;1.38;;;24.20;94.20;;;;;;5089394;28;20101;-78
2022/09/14 08:55:43;;;;;;;2.03;1.88;;;24.10;94.00;;;;;;5091267;28;20414;-78
2022/09/14 08:58:09;;;;;;;2.30;1.65;;;24.20;93.20;;;;;;5092760;28;20051;-78
2022/09/14 09:00:51;;;;;;;3.88;1.90;;;24.30;93.80;;;;;;5092533;28;20483;-80
2022/09/14 09:03:43;;;;;;;1.83;1.67;;;24.50;93.60;;;;;;5092228;28;20023;-76
2022/09/14 09:06:33;;;;;;;3.05;1.70;;;24.50;93.00;;;;;;5092361;28;20086;-77
2022/09/14 09:09:06;;;;;;;6.43;1.67;;;24.30;92.90;;;;;;5092045;28;20024;-78
2022/09/14 09:11:41;;;;;;;3.00;1.88;;;24.30;92.70;;;;;;5091973;28;20028;-77
2022/09/14 09:14:54;;;;;;;4.35;2.03;;;24.20;92.60;;;;;;5091982;28;20032;-77
2022/09/14 09:17:42;;;;;;;1.67;1.58;;;24.10;93.20;;;;;;5078765;28;20032;-78
2022/09/14 09:20:17;;;;;;;1.80;1.60;;;24.00;93.40;;;;;;5092411;28;20046;-74
2022/09/14 09:22:46;;;;;;;;;;;24.00;93.60;;;;;;5092564;28;20114;-78
2022/09/14 09:25:22;;;;;;;1.88;1.60;;;24.00;93.50;;;;;;5092316;28;19912;-75
2022/09/14 09:27:57;;;;;;;3.47;1.85;;;24.10;93.90;;;;;;5090907;28;20051;-80
2022/09/14 09:30:22;;;;;;;6.80;1.63;;;24.10;93.90;;;;;;5095215;28;20024;-79
2022/09/14 09:32:48;;;;;;;3.78;1.73;;;24.20;94.20;;;;;;5096176;28;20089;-78
2022/09/14 09:35:19;;;;;;;3.83;1.83;;;24.30;94.70;;;;;;5096435;28;20025;-76
2022/09/14 09:37:45;;;;;;;2.47;1.88;;;24.40;94.90;;;;;;5096237;28;20051;-76
2022/09/14 09:40:17;;;;;;;2.28;2.10;;;24.50;94.20;;;;;;5095948;28;20066;-77
2022/09/14 09:43:05;;;;;;;1.63;1.52;;;24.70;93.40;;;;;;5096313;28;20055;-78
2022/09/14 09:46:02;;;;;;;2.05;1.83;;;24.70;92.70;;;;;;5096145;28;20020;-80
2022/09/14 09:48:39;;;;;;;2.45;1.48;;;24.70;92.80;;;;;;5096331;28;20020;-79
2022/09/14 09:51:15;;;;;;;2.80;2.60;;;24.80;93.10;;;;;;5095741;28;20417;-76
2022/09/14 09:54:08;;;;;;;4.63;1.90;;;25.00;92.70;;;;;;5096375;28;20027;-76
2022/09/14 09:56:40;;;;;;;1.60;1.50;;;25.20;92.80;;;;;;5096625;28;20191;-75
2022/09/14 09:59:22;;;;;;;3.38;1.83;;;25.40;92.70;;;;;;5096032;28;20030;-75
2022/09/14 10:01:47;;;;;;;3.63;1.80;;;25.60;92.80;;;;;;5096196;28;20252;-76
2022/09/14 10:04:19;;;;;;;3.17;2.00;;;25.70;92.10;;;;;;5095860;28;20538;-78
2022/09/14 10:06:50;;;;;;;4.53;1.88;;;25.70;91.30;;;;;;5096475;28;20035;-76
2022/09/14 10:09:20;;;;;;;2.00;1.73;;;25.70;91.60;;;;;;5096187;28;20016;-77
2022/09/14 10:12:03;;;;;;;19.65;1.98;;;25.60;92.00;;;;;;5095894;28;20031;-79
2022/09/14 10:14:32;;;;;;;7.85;1.77;;;25.60;92.30;;;;;;5095921;28;20016;-76
2022/09/14 10:17:17;;;;;;;1.92;1.70;;;25.50;92.20;;;;;;5095618;28;20514;-77
2022/09/14 10:19:53;;;;;;;6.32;2.10;;;25.50;91.70;;;;;;5095552;28;20390;-78
2022/09/14 10:22:30;;;;;;;3.80;1.58;;;25.50;92.40;;;;;;5095572;28;20495;-77
2022/09/14 10:25:19;;;;;;;3.53;1.63;;;25.50;91.80;;;;;;5095492;28;20032;-80
2022/09/14 10:27:47;;;;;;;2.40;1.83;;;25.60;92.10;;;;;;5093795;28;20020;-78
2022/09/14 10:30:19;;;;;;;4.18;1.58;;;25.60;91.50;;;;;;5095302;28;20047;-80
2022/09/14 10:32:58;;;;;;;2.85;1.40;;;25.70;91.60;;;;;;5095621;28;20040;-80
2022/09/14 10:35:32;;;;;;;1.88;1.63;;;25.70;91.90;;;;;;5095395;28;20032;-79
2022/09/14 10:38:31;;;;;;;3.08;1.55;;;25.70;91.30;;;;;;5095180;28;20073;-79
2022/09/14 10:41:33;;;;;;;1.45;1.35;;;25.80;91.40;;;;;;5094930;28;20032;-79
2022/09/14 10:44:36;;;;;;;1.70;1.50;;;25.90;90.80;;;;;;5089332;28;20383;-76
2022/09/14 10:47:27;;;;;;;6.90;1.77;;;25.90;91.80;;;;;;5095188;28;20024;-78
2022/09/14 10:49:59;;;;;;;3.13;2.00;;;26.10;91.20;;;;;;5095066;28;20540;-79
2022/09/14 10:52:53;;;;;;;1.98;1.48;;;26.20;90.00;;;;;;5094921;28;20020;-79
2022/09/14 10:55:48;;;;;;;6.63;1.40;;;26.40;88.90;;;;;;5093573;28;20024;-79
2022/09/14 10:58:41;;;;;;;1.60;1.50;;;26.40;88.10;;;;;;5091403;28;20214;-78
2022/09/14 11:01:35;;;;;;;2.63;1.55;;;26.50;88.20;;;;;;5095037;28;20034;-78
2022/09/14 11:04:14;;;;;;;1.50;1.40;;;26.60;87.70;;;;;;5093987;28;20039;-78
2022/09/14 11:07:30;;;;;;;1.60;1.27;;;26.70;86.30;;;;;;5094954;28;20035;-77
2022/09/14 11:10:19;;;;;;;1.58;1.48;;;26.80;86.10;;;;;;5068071;28;20036;-77
2022/09/14 11:13:03;;;;;;;1.85;1.70;;;26.80;85.90;;;;;;5094820;28;20095;-77
2022/09/14 11:15:42;;;;;;;4.40;1.25;;;26.90;86.40;;;;;;5094770;28;20032;-78
2022/09/14 11:18:15;;;;;;;3.40;1.15;;;26.90;85.70;;;;;;5094408;28;20123;-77
2022/09/14 11:21:08;;;;;;;3.20;1.33;;;26.80;85.50;;;;;;5094621;28;20055;-77
2022/09/14 11:23:54;;;;;;;2.88;1.50;;;26.80;85.40;;;;;;5093095;28;20114;-76
2022/09/14 11:26:43;;;;;;;1.60;1.40;;;26.70;86.00;;;;;;5094218;28;20482;-78
2022/09/14 11:29:34;;;;;;;1.05;0.95;;;26.70;85.50;;;;;;5094812;28;20031;-78
2022/09/14 11:32:20;;;;;;;1.30;1.20;;;26.80;87.00;;;;;;5093219;28;20024;-78
2022/09/14 11:35:09;;;;;;;3.22;1.17;;;26.90;86.40;;;;;;5092746;28;20374;-79
2022/09/14 11:37:40;;;;;;;3.47;1.20;;;26.90;86.80;;;;;;5094371;28;20032;-77
2022/09/14 11:40:15;;;;;;;1.95;1.00;;;27.00;84.20;;;;;;5092494;28;20068;-79
2022/09/14 11:42:59;;;;;;;;;;;27.00;83.30;;;;;;5094425;28;20077;-78
2022/09/14 11:45:30;;;;;;;1.27;1.10;;;27.00;82.40;;;;;;5094091;28;19939;-78
2022/09/14 11:48:24;;;;;;;4.88;1.55;;;27.10;81.90;;;;;;5093992;28;20035;-79
2022/09/14 11:51:04;;;;;;;1.38;1.25;;;27.30;81.90;;;;;;5088192;28;20036;-76
2022/09/14 11:53:32;;;;;;;1.50;1.40;;;27.20;81.30;;;;;;5093643;28;20043;-79
2022/09/14 11:55:58;;;;;;;1.33;1.25;;;27.20;80.80;;;;;;5094008;28;20048;-77
2022/09/14 11:58:28;;;;;;;1.10;1.10;;;27.20;80.50;;;;;;5093780;28;20340;-77
2022/09/14 12:01:25;;;;;;;2.33;1.55;;;27.20;80.30;;;;;;5093646;28;20035;-78
2022/09/14 12:03:59;;;;;;;1.48;1.38;;;27.30;80.60;;;;;;5093696;28;20020;-79
2022/09/14 12:06:31;;;;;;;1.23;1.17;;;27.40;80.70;;;;;;5094130;28;20383;-77
2022/09/14 12:09:21;;;;;;;1.67;1.08;;;27.50;83.10;;;;;;5093966;28;20117;-78
2022/09/14 12:11:48;;;;;;;3.72;2.03;;;27.40;83.40;;;;;;5093097;28;20028;-79
2022/09/14 12:14:23;;;;;;;2.97;1.45;;;27.30;84.40;;;;;;5094042;28;20121;-78
2022/09/14 12:17:21;;;;;;;1.90;1.77;;;27.20;83.40;;;;;;5093880;28;20032;-80
2022/09/14 12:19:51;;;;;;;1.67;1.58;;;27.30;84.20;;;;;;5092078;28;20044;-79
2022/09/14 12:22:25;;;;;;;1.52;1.23;;;27.30;83.70;;;;;;5091921;28;20024;-80
2022/09/14 12:25:03;;;;;;;5.95;1.25;;;27.30;83.70;;;;;;5093534;28;20035;-79
2022/09/14 12:27:32;;;;;;;4.57;1.88;;;27.40;84.20;;;;;;5091678;28;20024;-79
2022/09/14 12:29:58;;;;;;;1.73;1.55;;;27.50;84.30;;;;;;5091495;28;20028;-78
2022/09/14 12:32:42;;;;;;;1.35;1.25;;;27.60;83.30;;;;;;5093107;28;20451;-80
2022/09/14 12:35:38;;;;;;;1.20;1.10;;;27.60;83.80;;;;;;5092896;28;20020;-77
2022/09/14 12:38:29;;;;;;;1.58;1.40;;;27.60;82.10;;;;;;5091378;28;20027;-79
2022/09/14 12:41:01;;;;;;;1.73;1.38;;;27.60;82.60;;;;;;5092434;28;20425;-79
2022/09/14 12:43:33;;;;;;;1.88;1.30;;;27.60;83.60;;;;;;5092366;28;20028;-79
2022/09/14 12:46:22;;;;;;;6.20;1.23;;;27.70;83.40;;;;;;5092690;28;20044;-79
2022/09/14 12:48:48;;;;;;;6.22;1.20;;;27.80;82.90;;;;;;5081489;28;20039;-77
2022/09/14 12:51:22;;;;;;;1.42;1.33;;;27.80;82.40;;;;;;5092241;28;20360;-79
2022/09/14 12:53:59;;;;;;;7.45;1.48;;;27.90;81.00;;;;;;5092610;28;20085;-77
2022/09/14 12:56:39;;;;;;;1.38;1.27;;;27.80;82.30;;;;;;5091211;28;20544;-80
2022/09/14 12:59:27;;;;;;;2.28;1.13;;;28.00;81.40;;;;;;5092395;28;20089;-78
2022/09/14 13:02:10;;;;;;;1.75;1.27;;;28.00;81.90;;;;;;5092415;28;20024;-81
2022/09/14 13:04:38;;;;;;;4.68;1.40;;;28.00;81.70;;;;;;5092423;28;20031;-80
2022/09/14 13:07:11;;;;;;;3.33;1.73;;;28.00;81.10;;;;;;5093159;28;20016;-78
2022/09/14 13:09:37;;;;;;;1.42;1.33;;;28.20;81.40;;;;;;5092994;28;20024;-80
2022/09/14 13:12:09;;;;;;;2.65;0.80;;;28.30;79.80;;;;;;5092774;28;20593;-77
2022/09/14 13:14:52;;;;;;;3.17;1.60;;;28.40;78.90;;;;;;5093002;28;20367;-80
2022/09/14 13:17:18;;;;;;;4.20;1.45;;;28.60;79.10;;;;;;5092816;28;20080;-80